Etusivu
METAR-TAF:

METAR-TAF

Lentoasemat :

Wahoo, Nebraska, Yhdysvallat

Leveyspiiri: 41-14-26N, Pituuspiiri: 096-35-40W, korkeus merenpinnasta: 373 m

Tämänhetkinen sää

Tämä raportti tehtiin 16 minuuttia sitten, kello 09.55 UTC
Tuuli 3 kn lännestä
Lämpötila -4°C
Kosteus 86%
Ilmanpaine 1024 hPa
Näkyvyys: 16.1 km
selkeää

METAR: KAHQ 180955Z AUTO 26003KT 10SM CLR M04/M06 A3025 RMK AO2 T10451060

Aika: 04:11 (10:11 UTC)


TAF: puuttuu

Säähavainnot ja -ennusteet yli 4000 lentoasemalta (METAR- ja TAF-raportit).

Käytössä olevat sääasemat on merkitty karttaan keltaisilla ja punaisilla pisteillä.

Aseta hiiri pisteen päälle nähdäksesi sääaseman nimen.

Klikkaa sitten nähdäksesi säähavainnot ja -ennusteet.

Kartan vaihtaminen: klikkaa mustalla rastilla varustettuja vihreitä pisteitä, niin voit zoomata sisään; viivalla varustettua vihreää pistettä, niin voit zoomata ulos tai vihreitä nuolia, niin pääset viereisille kartoille.


METAR-TAF: